• Join FlightAware (Why Join?)
  • Login
  • US Flag 
Rudolph Flight #1: Arrived! 
07:44AM EST


 

Airport Tracker/Info


-or-


 

Live Flight TrackerFlight Track Log ✈ KAP927 ✈ 26-Jun-2013 ✈ KBOS - KALB

Flight Track Log - Related Links

Times and Time Zones

All times are in EDT time to prevent confusion due to time zone crossing. See the KAP927 flight status page for this flight to view local times or setup timezone preferences in your user account.

Time Position Orientation Groundspeed Altitude Reporting Facility
EDT Latitude Longitude Course Direction KTS MPH feet Rate Location/Type
01:11PM 42.3667 -70.9833 270° West 152 175 500  Level KA90
01:12PM 42.3667 -71.0167 270° West 125 144 1,300 660 Climbing KA90
01:13PM 42.3667 -71.0667 270° West 132 152 1,700 420 Climbing KA90
01:14PM 42.3667 -71.1167 270° West 130 150 2,200 540 Climbing KA90
01:15PM 42.3667 -71.1667 270° West 124 143 2,900 660 Climbing KA90
01:16PM 42.3667 -71.2000 270° West 121 139 3,600 600 Climbing KA90
01:17PM 42.3667 -71.2500 270° West 109 125 4,200 540 Climbing KA90
01:18PM 42.3500 -71.3000 246° West 118 136 4,800 480 Climbing KA90
01:19PM 42.3500 -71.3333 270° West 122 140 5,300 420 Climbing KA90
01:20PM 42.3333 -71.3833 246° West 124 143 5,700 420 Climbing KA90
01:21PM 42.3333 -71.4333 270° West 124 143 6,200 480 Climbing KA90
01:22PM 42.3192 -71.4714 243° Southwest 122 140 6,600 480 Climbing Boston Center
01:23PM 42.3111 -71.5192 257° West 124 143 7,100 480 Climbing Boston Center
01:24PM 42.3033 -71.5614 256° West 124 143 7,600 420 Climbing Boston Center
01:25PM 42.2972 -71.6092 260° West 119 137 8,000 180 Climbing Boston Center
01:26PM 42.2894 -71.6572 258° West 136 157 8,000  Level Boston Center
01:27PM 42.2833 -71.7133 262° West 148 170 8,100  Climbing Boston Center
01:28PM 42.2756 -71.7694 259° West 153 176 8,100 -60 Level Boston Center
01:29PM 42.2653 -71.8258 256° West 151 174 8,000 -60 Descending Boston Center
01:30PM 42.2678 -71.8875 273° West 147 169 8,000  Level Boston Center
01:31PM 42.2681 -71.9294 271° West 147 169 8,100  Climbing Boston Center
01:32PM 42.2703 -71.9828 273° West 141 162 8,100  Level Boston Center
01:33PM 42.2706 -72.0333 270° West 129 148 8,100  Level Boston Center
01:34PM 42.2686 -72.0867 267° West 133 153 8,100  Level Boston Center
01:35PM 42.2728 -72.1342 277° West 129 148 8,100 -60 Level Boston Center
01:36PM 42.2772 -72.1847 277° West 134 154 8,000  Descending Boston Center
01:37PM 42.2919 -72.2408 290° West 134 154 8,100  Climbing Boston Center
01:38PM 42.3086 -72.2914 294° West 137 158 8,100 -60 Level Boston Center
01:39PM 42.3211 -72.3278 295° West 134 154 8,000  Descending Boston Center
01:40PM 42.3336 -72.3756 290° West 136 157 8,100  Climbing Boston Center
01:41PM 42.3461 -72.4233 290° West 140 161 8,100 -60 Level Boston Center
01:42PM 42.3608 -72.4739 292° West 136 157 8,000 -60 Descending Boston Center
01:43PM 42.3775 -72.5244 294° West 138 159 8,000  Level Boston Center
01:44PM 42.3919 -72.5750 291° West 139 160 8,100  Climbing Boston Center
01:45PM 42.4064 -72.6228 292° West 141 162 8,100 -60 Level Boston Center
01:46PM 42.4231 -72.6708 295° West 141 162 8,000  Descending Boston Center
01:47PM 42.4356 -72.7214 289° West 139 160 8,100  Climbing Boston Center
01:48PM 42.4500 -72.7664 294° West 139 160 8,100 -60 Level Boston Center
01:49PM 42.4622 -72.8144 289° West 137 158 8,000 -60 Descending Boston Center
01:50PM 42.4767 -72.8567 295° West 133 153 8,000  Level Boston Center
01:51PM 42.4869 -72.8989 288° West 131 151 8,100  Climbing Boston Center
01:52PM 42.5014 -72.9414 295° West 133 153 8,000 -60 Descending Boston Center
01:53PM 42.5200 -72.9922 296° West 133 153 8,000  Level Boston Center
01:54PM 42.5322 -73.0403 289° West 137 158 8,100  Climbing Boston Center
01:55PM 42.5444 -73.0911 288° West 135 155 8,100 -480 Level Boston Center
01:56PM 42.5608 -73.1419 294° West 147 169 7,200 -720 Descending Boston Center
01:57PM 42.5792 -73.2042 292° West 168 193 6,700 -540 Descending Boston Center
01:58PM 42.5892 -73.2608 283° West 162 186 6,200 -540 Descending Boston Center
01:59PM 42.5867 -73.3200 267° West 159 183 5,700 -540 Descending Boston Center
02:00PM 42.5819 -73.3792 264° West 161 185 5,200 -360 Descending Boston Center
02:01PM 42.5794 -73.4411 267° West 161 185 5,000 -120 Descending Boston Center
02:02PM 42.5769 -73.4947 266° West 143 165 5,000 -300 Level Boston Center
02:03PM 42.5722 -73.5508 263° West 149 171 4,400 -600 Descending Boston Center
02:04PM 42.5839 -73.6158 284° West 168 193 3,800 -600 Descending Boston Center
02:05PM 42.6022 -73.6756 293° West 165 190 3,200 -600 Descending Boston Center
02:06PM 42.6222 -73.7325 296° West 172 198 2,600 -660 Descending Boston Center
02:07PM 42.6553 -73.7753 316° Northwest 171 197 1,900 -660 Descending Boston Center
02:08PM 42.6903 -73.8017 331° Northwest 151 174 1,300 -720 Descending Boston Center
02:09PM 42.7278 -73.8081 353° North 128 147 600 -780 Descending Boston Center
02:11PM 42.7333 -73.8000 332° Northwest  Level FlightAware Approximate
02:18PM 42.7491 -73.8020 332° Northwest  Level Estimated
02:19PM 42.7491 -73.8020 332° Northwest  Level Estimated
02:20PM 42.7491 -73.8020 332° Northwest  Level Estimated